• Join FlightAware (Why Join?)
  • Login
  • US Flag 
09:43AM EDT


 

Airport Tracker/Info


-or-


 

Live Flight TrackerFlight Track Log ✈ CHH7870 ✈ 27-May-2013 ✈ ZLYA / ENY - ZUCK / CKG

Flight Track Log - Related Links

Times and Time Zones

All times are in EDT time to prevent confusion due to time zone crossing. See the CHH7870 flight status page for this flight to view local times or setup timezone preferences in your user account.

Time Position Orientation Groundspeed Altitude Reporting Facility
EDT Latitude Longitude Course Direction KTS MPH feet Rate Location/Type
12:49AM 36.5387 109.5088 200° South  Level Estimated
12:50AM 36.4404 109.4639 200° South  Level Estimated
12:51AM 36.3421 109.4191 200° South  Level Estimated
12:52AM 36.2438 109.3743 200° South  Level Estimated
12:53AM 36.1455 109.3297 200° South  Level Estimated
12:54AM 36.0471 109.2852 200° South  Level Estimated
12:55AM 35.9487 109.2408 200° South  Level Estimated
12:56AM 35.8503 109.1965 200° South  Level Estimated
12:57AM 35.7519 109.1524 200° South  Level Estimated
12:58AM 35.6535 109.1083 200° South  Level Estimated
12:59AM 35.5551 109.0644 200° South  Level Estimated
01:00AM 35.4567 109.0205 200° South  Level Estimated
01:01AM 35.3582 108.9768 200° South  Level Estimated
01:02AM 35.2597 108.9332 200° South  Level Estimated
01:03AM 35.1612 108.8896 200° South  Level Estimated
01:04AM 35.0627 108.8462 200° South  Level Estimated
01:05AM 34.9642 108.8029 200° South  Level Estimated
01:06AM 34.8657 108.7597 200° South  Level Estimated
01:07AM 34.7671 108.7166 200° South  Level Estimated
01:08AM 34.6685 108.6736 200° South  Level Estimated
01:09AM 34.5700 108.6307 200° South  Level Estimated
01:10AM 34.4714 108.5879 200° South  Level Estimated
01:11AM 34.3727 108.5452 200° South  Level Estimated
01:12AM 34.2741 108.5026 200° South  Level Estimated
01:13AM 34.1755 108.4601 200° South  Level Estimated
01:14AM 34.0768 108.4177 200° South  Level Estimated
01:15AM 33.9781 108.3754 200° South  Level Estimated
01:16AM 33.8795 108.3332 200° South  Level Estimated
01:17AM 33.7808 108.2911 200° South  Level Estimated
01:18AM 33.6820 108.2491 199° South  Level Estimated
01:19AM 33.5833 108.2072 199° South  Level Estimated
01:20AM 33.4846 108.1654 199° South  Level Estimated
01:21AM 33.3858 108.1237 199° South  Level Estimated
01:22AM 33.2870 108.0821 199° South  Level Estimated
01:23AM 33.1883 108.0406 199° South  Level Estimated
01:24AM 33.0895 107.9991 199° South  Level Estimated
01:25AM 32.9906 107.9578 199° South  Level Estimated
01:26AM 32.8918 107.9165 199° South  Level Estimated
01:27AM 32.7930 107.8754 199° South  Level Estimated
01:28AM 32.6941 107.8343 199° South  Level Estimated
01:29AM 32.5952 107.7933 199° South  Level Estimated
01:30AM 32.4964 107.7524 199° South  Level Estimated
01:31AM 32.3975 107.7116 199° South  Level Estimated
01:32AM 32.2986 107.6709 199° South  Level Estimated
01:33AM 32.1996 107.6303 199° South  Level Estimated
01:34AM 32.1007 107.5898 199° South  Level Estimated
01:35AM 32.0018 107.5493 199° South  Level Estimated
01:36AM 31.9028 107.5090 199° South  Level Estimated
01:37AM 31.8038 107.4687 199° South  Level Estimated
01:38AM 31.7049 107.4286 199° South  Level Estimated
01:39AM 31.5982 107.3854 199° South  Level Estimated
01:40AM 31.4916 107.3423 199° South  Level Estimated
01:41AM 31.3850 107.2993 199° South  Level Estimated
01:42AM 31.2783 107.2564 199° South  Level Estimated
01:43AM 31.1716 107.2137 199° South  Level Estimated
01:44AM 31.0650 107.1710 199° South  Level Estimated
01:45AM 30.9583 107.1284 199° South  Level Estimated
01:46AM 30.8516 107.0859 199° South  Level Estimated
01:47AM 30.7448 107.0435 199° South  Level Estimated
01:48AM 30.6381 107.0012 199° South  Level Estimated
01:49AM 30.5313 106.9589 199° South  Level Estimated
01:50AM 30.4246 106.9168 199° South  Level Estimated
01:51AM 30.3178 106.8748 199° South  Level Estimated
01:52AM 30.2110 106.8328 199° South  Level Estimated
01:53AM 30.1042 106.7910 199° South  Level Estimated
01:54AM 29.9974 106.7492 199° South  Level Estimated
01:55AM 29.8905 106.7076 199° South  Level Estimated
01:56AM 29.7837 106.6660 199° South  Level Estimated
01:57AM 29.7194 106.6410 199° South  Level Estimated
01:58AM 29.7194 106.6410 60° Northeast  Level Estimated
01:59AM 29.7194 106.6410 60° Northeast  Level Estimated
02:00AM 29.7194 106.6410 60° Northeast  Level Estimated
02:01AM 29.7194 106.6410 60° Northeast  Level Estimated
02:02AM 29.7194 106.6410 60° Northeast  Level Estimated
02:03AM 29.7194 106.6410 60° Northeast  Level Estimated
02:04AM 29.7194 106.6410 60° Northeast  Level Estimated
02:05AM 29.7194 106.6410 60° Northeast  Level Estimated
02:06AM 29.7194 106.6410 60° Northeast  Level Estimated
02:07AM 29.7194 106.6410 60° Northeast  Level Estimated
02:08AM 29.7194 106.6410 60° Northeast  Level Estimated
02:09AM 29.7194 106.6410 60° Northeast  Level Estimated
02:10AM 29.7194 106.6410 60° Northeast  Level Estimated
02:11AM 29.7194 106.6410 60° Northeast  Level Estimated
02:12AM 29.7194 106.6410 60° Northeast  Level Estimated
02:13AM 29.7194 106.6410 60° Northeast  Level Estimated
02:14AM 29.7194 106.6410 60° Northeast  Level Estimated
02:15AM 29.7194 106.6410 60° Northeast  Level Estimated
02:16AM 29.7194 106.6410 60° Northeast  Level Estimated
02:17AM 29.7194 106.6410 60° Northeast  Level Estimated
02:18AM 29.7194 106.6410 60° Northeast  Level Estimated
02:19AM 29.7194 106.6410 60° Northeast  Level Estimated
02:20AM 29.7194 106.6410 60° Northeast  Level Estimated
02:21AM 29.7194 106.6410 60° Northeast  Level Estimated
02:22AM 29.7194 106.6410 60° Northeast  Level Estimated
02:23AM 29.7194 106.6410 60° Northeast  Level Estimated
02:24AM 29.7194 106.6410 60° Northeast  Level Estimated
02:25AM 29.7194 106.6410 60° Northeast  Level Estimated
02:26AM 29.7194 106.6410 60° Northeast  Level Estimated
02:27AM 29.7194 106.6410 60° Northeast  Level Estimated
02:28AM 29.7194 106.6410 60° Northeast  Level Estimated